createdAt,value
2022-07-27T00:01:19.655Z,18.30
2022-07-27T00:03:48.252Z,18.20
2022-07-27T00:06:16.599Z,18.20
2022-07-27T00:08:45.418Z,18.00
2022-07-27T00:11:13.955Z,18.10
2022-07-27T00:13:42.197Z,18.10
2022-07-27T00:16:10.372Z,18.10
2022-07-27T00:18:39.919Z,18.00
2022-07-27T00:21:08.382Z,18.00
2022-07-27T00:23:36.813Z,17.80
2022-07-27T00:26:04.969Z,17.70
2022-07-27T00:28:33.210Z,17.50
2022-07-27T00:31:01.393Z,17.40
2022-07-27T00:33:29.691Z,17.20
2022-07-27T00:35:59.168Z,17.10
2022-07-27T00:38:27.205Z,17.00
2022-07-27T00:40:55.348Z,16.90
2022-07-27T00:43:23.605Z,16.80
2022-07-27T00:45:51.887Z,16.70
2022-07-27T00:48:20.112Z,16.60
2022-07-27T00:50:48.454Z,16.60
2022-07-27T00:53:18.224Z,16.60
2022-07-27T00:55:47.201Z,16.50
2022-07-27T00:58:15.766Z,16.50
2022-07-27T01:00:43.925Z,16.50
2022-07-27T01:03:12.254Z,16.40
2022-07-27T01:05:44.139Z,16.40
2022-07-27T01:08:14.677Z,16.40
2022-07-27T01:10:48.212Z,16.40
2022-07-27T01:13:17.490Z,16.40
2022-07-27T01:15:45.881Z,16.40
2022-07-27T01:18:14.760Z,16.40
2022-07-27T01:20:43.752Z,16.30
2022-07-27T01:23:13.202Z,16.30
2022-07-27T01:25:44.222Z,16.30
2022-07-27T01:28:12.364Z,16.30
2022-07-27T01:30:40.489Z,16.30
2022-07-27T01:33:10.503Z,16.20
2022-07-27T01:35:39.791Z,16.20
2022-07-27T01:38:09.867Z,16.20
2022-07-27T01:40:39.804Z,16.20
2022-07-27T01:43:08.181Z,16.20
2022-07-27T01:45:36.457Z,16.20
2022-07-27T01:48:04.826Z,16.30
2022-07-27T01:50:33.165Z,16.40
2022-07-27T01:53:01.272Z,16.40
2022-07-27T01:55:38.385Z,16.30
2022-07-27T01:58:09.542Z,16.30
2022-07-27T02:00:38.655Z,16.20
2022-07-27T02:03:07.993Z,16.10
2022-07-27T02:05:39.701Z,16.10
2022-07-27T02:08:08.671Z,16.10
2022-07-27T02:10:58.323Z,16.20
2022-07-27T02:13:26.945Z,16.20
2022-07-27T02:15:55.289Z,16.20
2022-07-27T02:18:33.199Z,16.20
2022-07-27T02:21:07.194Z,16.20
2022-07-27T02:23:36.091Z,16.20
2022-07-27T02:26:04.983Z,16.20
2022-07-27T02:28:37.517Z,16.10
2022-07-27T02:31:06.097Z,16.10
2022-07-27T02:33:34.329Z,16.10
2022-07-27T02:36:02.540Z,16.10
2022-07-27T02:38:30.769Z,16.10
2022-07-27T02:40:59.021Z,16.00
2022-07-27T02:43:27.158Z,16.00
2022-07-27T02:45:56.659Z,16.00
2022-07-27T02:48:24.724Z,16.10
2022-07-27T02:50:53.008Z,16.10
2022-07-27T02:53:21.117Z,16.10
2022-07-27T02:55:51.234Z,16.10
2022-07-27T02:58:19.410Z,16.10
2022-07-27T03:00:47.547Z,16.00
2022-07-27T03:03:17.320Z,16.00
2022-07-27T03:05:45.525Z,16.10
2022-07-27T03:08:13.629Z,16.20
2022-07-27T03:10:41.802Z,16.20
2022-07-27T03:13:16.906Z,16.20
2022-07-27T03:15:45.093Z,16.20
2022-07-27T03:18:13.243Z,16.20
2022-07-27T03:20:42.829Z,16.30
2022-07-27T03:23:10.891Z,16.30
2022-07-27T03:25:39.145Z,16.20
2022-07-27T03:28:07.226Z,16.20
2022-07-27T03:30:35.324Z,16.10
2022-07-27T03:33:05.784Z,16.00
2022-07-27T03:35:34.457Z,16.00
2022-07-27T03:38:04.267Z,15.90
2022-07-27T03:40:33.513Z,15.90
2022-07-27T03:43:02.280Z,15.80
2022-07-27T03:45:30.413Z,15.80
2022-07-27T03:47:58.519Z,15.90
2022-07-27T03:50:26.790Z,15.90
2022-07-27T03:52:54.944Z,15.90
2022-07-27T03:55:24.436Z,15.90
2022-07-27T03:57:56.779Z,15.90
2022-07-27T04:00:25.186Z,16.00
2022-07-27T04:02:53.445Z,16.20
2022-07-27T04:05:21.902Z,16.40
2022-07-27T04:07:54.909Z,16.40
2022-07-27T04:10:26.067Z,16.60
2022-07-27T04:13:00.184Z,16.80
2022-07-27T04:15:29.429Z,17.30
2022-07-27T04:17:58.690Z,17.80
2022-07-27T04:20:27.017Z,18.40
2022-07-27T04:22:55.466Z,18.80
2022-07-27T04:25:25.010Z,19.10
2022-07-27T04:27:54.490Z,19.70
2022-07-27T04:30:23.296Z,20.10
2022-07-27T04:32:51.750Z,20.20
2022-07-27T04:35:25.691Z,20.60
2022-07-27T04:37:58.279Z,21.10
2022-07-27T04:40:32.237Z,21.20
2022-07-27T04:43:00.397Z,21.40
2022-07-27T04:45:28.491Z,21.60
2022-07-27T04:47:56.738Z,20.90
2022-07-27T04:50:25.146Z,20.20
2022-07-27T04:53:00.230Z,20.00
2022-07-27T04:55:29.838Z,20.60
2022-07-27T04:57:57.917Z,20.70
2022-07-27T05:00:26.299Z,20.90
2022-07-27T05:02:54.835Z,20.50
2022-07-27T05:05:23.185Z,20.50
2022-07-27T05:07:51.406Z,20.40
2022-07-27T05:10:20.755Z,19.60
2022-07-27T05:12:50.867Z,19.40
2022-07-27T05:15:23.133Z,19.20
2022-07-27T05:17:52.206Z,19.00
2022-07-27T05:20:20.609Z,19.00
2022-07-27T05:22:48.734Z,19.10
2022-07-27T05:25:16.884Z,19.00
2022-07-27T05:27:54.307Z,18.90
2022-07-27T05:30:25.547Z,18.90
2022-07-27T05:32:54.117Z,18.90
2022-07-27T05:35:22.600Z,19.00
2022-07-27T05:37:53.293Z,19.00
2022-07-27T05:40:21.578Z,19.10
2022-07-27T05:42:49.774Z,19.10
2022-07-27T05:45:20.613Z,19.10
2022-07-27T05:47:56.620Z,19.30
2022-07-27T05:50:24.699Z,19.30
2022-07-27T05:52:52.788Z,19.30
2022-07-27T05:55:21.810Z,19.30
2022-07-27T05:57:49.923Z,19.20
2022-07-27T06:00:18.304Z,19.30
2022-07-27T06:02:46.302Z,19.50
2022-07-27T06:05:17.558Z,19.80
2022-07-27T06:08:03.073Z,19.90
2022-07-27T06:10:35.004Z,19.80
2022-07-27T06:13:07.225Z,19.90
2022-07-27T06:15:36.525Z,20.00
2022-07-27T06:18:09.034Z,19.90
2022-07-27T06:20:38.666Z,19.90
2022-07-27T06:23:08.981Z,20.00
2022-07-27T06:25:37.518Z,20.10
2022-07-27T06:28:06.451Z,20.30
2022-07-27T06:30:34.696Z,20.20
2022-07-27T06:33:06.163Z,20.30
2022-07-27T06:35:34.912Z,20.50
2022-07-27T06:38:07.583Z,20.60
2022-07-27T06:40:35.800Z,20.50
2022-07-27T06:43:04.150Z,20.70
2022-07-27T06:45:32.357Z,20.80
2022-07-27T06:48:00.583Z,21.10
2022-07-27T06:50:28.786Z,21.10
2022-07-27T06:52:57.026Z,21.30
2022-07-27T06:55:26.599Z,21.30
2022-07-27T06:57:54.768Z,21.00
2022-07-27T07:00:23.194Z,20.70
2022-07-27T07:02:55.582Z,20.60
2022-07-27T07:05:26.690Z,20.50
2022-07-27T07:07:57.287Z,20.70
2022-07-27T07:10:29.621Z,20.90
2022-07-27T07:13:05.519Z,21.00
2022-07-27T07:15:34.068Z,20.90
2022-07-27T07:18:03.737Z,21.10
2022-07-27T07:20:32.271Z,21.40
2022-07-27T07:23:00.798Z,21.80
2022-07-27T07:25:33.724Z,21.80
2022-07-27T07:28:02.380Z,21.70
2022-07-27T07:30:31.014Z,21.80
2022-07-27T07:32:59.309Z,21.90
2022-07-27T07:35:27.630Z,21.90
2022-07-27T07:37:55.950Z,21.90
2022-07-27T07:40:42.672Z,22.00
2022-07-27T07:43:14.485Z,22.30
2022-07-27T07:45:50.671Z,22.40
2022-07-27T07:48:21.272Z,22.50
2022-07-27T07:50:52.074Z,22.40
2022-07-27T07:53:22.676Z,22.40
2022-07-27T07:55:51.328Z,22.60
2022-07-27T07:58:21.691Z,22.70
2022-07-27T08:00:50.000Z,22.90
2022-07-27T08:03:18.996Z,22.50
2022-07-27T08:05:47.349Z,22.50
2022-07-27T08:08:15.584Z,22.30
2022-07-27T08:10:43.783Z,21.90
2022-07-27T08:13:11.807Z,22.00
2022-07-27T08:15:41.364Z,22.00
2022-07-27T08:18:09.907Z,22.10
2022-07-27T08:20:38.057Z,22.20
2022-07-27T08:23:08.658Z,22.40
2022-07-27T08:25:39.276Z,22.70
2022-07-27T08:28:07.748Z,22.60
2022-07-27T08:30:36.104Z,22.30
2022-07-27T08:33:06.240Z,22.50
2022-07-27T08:35:35.863Z,22.70
2022-07-27T08:38:07.250Z,23.10
2022-07-27T08:40:40.647Z,23.10
2022-07-27T08:43:11.947Z,22.90
2022-07-27T08:45:44.193Z,22.90
2022-07-27T08:48:15.256Z,22.90
2022-07-27T08:50:43.987Z,22.50
2022-07-27T08:53:21.361Z,22.50
2022-07-27T08:55:49.909Z,22.70
2022-07-27T08:58:18.875Z,22.60
2022-07-27T09:00:49.779Z,22.60
2022-07-27T09:03:21.847Z,23.00
2022-07-27T09:05:52.793Z,23.20
2022-07-27T09:08:24.867Z,23.50
2022-07-27T09:10:55.485Z,23.70
2022-07-27T09:13:26.267Z,23.60
2022-07-27T09:16:17.350Z,23.70
2022-07-27T09:18:46.134Z,24.00
2022-07-27T09:21:18.535Z,24.20
2022-07-27T09:23:48.513Z,24.40
2022-07-27T09:26:31.761Z,24.10
2022-07-27T09:29:06.745Z,24.20
2022-07-27T09:31:42.772Z,24.80
2022-07-27T09:34:13.374Z,24.70
2022-07-27T09:36:53.536Z,24.30
2022-07-27T09:39:23.668Z,24.40
2022-07-27T09:41:55.374Z,24.60
2022-07-27T09:44:42.175Z,25.10
2022-07-27T09:47:23.047Z,24.50
2022-07-27T09:49:53.175Z,24.10
2022-07-27T09:52:26.621Z,24.40
2022-07-27T09:54:55.612Z,24.90
2022-07-27T09:57:23.853Z,25.20
2022-07-27T10:00:10.577Z,25.00
2022-07-27T10:02:39.996Z,25.00
2022-07-27T10:05:10.791Z,25.20
2022-07-27T10:07:39.733Z,25.50
2022-07-27T10:10:09.388Z,24.80
2022-07-27T10:12:37.692Z,25.30
2022-07-27T10:15:06.647Z,25.10
2022-07-27T10:17:36.640Z,25.00
2022-07-27T10:20:09.835Z,25.10
2022-07-27T10:22:54.865Z,24.90
2022-07-27T10:25:24.655Z,24.70
2022-07-27T10:28:11.676Z,24.50
2022-07-27T10:30:41.141Z,24.30
2022-07-27T10:33:17.243Z,23.80
2022-07-27T10:35:46.914Z,23.60
2022-07-27T10:38:18.293Z,24.10
2022-07-27T10:40:46.910Z,24.40
2022-07-27T10:43:22.872Z,24.40
2022-07-27T10:46:01.867Z,24.30
2022-07-27T10:48:41.652Z,24.60
2022-07-27T10:51:16.116Z,24.90
2022-07-27T10:56:46.313Z,25.20
2022-07-27T10:59:14.805Z,25.40
2022-07-27T11:01:58.299Z,25.30
2022-07-27T11:04:29.812Z,25.20
2022-07-27T11:10:03.416Z,25.00
2022-07-27T11:12:32.415Z,24.50
2022-07-27T11:15:02.508Z,24.30
2022-07-27T11:17:52.843Z,24.20
2022-07-27T11:20:26.767Z,24.40
2022-07-27T11:23:48.835Z,24.60
2022-07-27T11:26:00.421Z,24.70
2022-07-27T11:28:32.977Z,24.40
2022-07-27T11:31:03.837Z,24.50
2022-07-27T11:33:33.140Z,24.50
2022-07-27T11:36:02.654Z,24.80
2022-07-27T11:38:45.568Z,24.70
2022-07-27T11:41:55.628Z,24.60
2022-07-27T11:44:18.130Z,24.60
2022-07-27T11:46:47.567Z,24.60
2022-07-27T11:49:17.773Z,24.20
2022-07-27T11:51:48.445Z,24.30
2022-07-27T11:54:23.228Z,24.20
2022-07-27T11:56:58.326Z,24.20
2022-07-27T11:59:28.850Z,24.10
2022-07-27T12:01:59.129Z,23.90
2022-07-27T12:04:28.968Z,24.10
2022-07-27T12:07:04.694Z,24.30
2022-07-27T12:09:39.019Z,24.60
2022-07-27T12:12:15.634Z,25.00
2022-07-27T12:14:46.809Z,25.30
2022-07-27T12:17:21.023Z,25.20
2022-07-27T12:19:58.114Z,25.10
2022-07-27T12:22:37.424Z,24.60
2022-07-27T12:25:16.285Z,24.00
2022-07-27T12:27:56.598Z,24.40
2022-07-27T12:30:35.372Z,25.00
2022-07-27T12:33:04.884Z,25.00
2022-07-27T12:35:38.037Z,25.00
2022-07-27T12:38:10.974Z,25.00
2022-07-27T12:40:47.778Z,25.50
2022-07-27T12:43:18.427Z,25.60
2022-07-27T12:45:48.019Z,25.40
2022-07-27T12:48:18.480Z,25.00
2022-07-27T12:50:48.051Z,24.90
2022-07-27T12:53:17.932Z,25.00
2022-07-27T12:55:47.600Z,24.90
2022-07-27T12:58:17.082Z,24.70
2022-07-27T13:00:45.470Z,24.90
2022-07-27T13:03:13.768Z,25.10
2022-07-27T13:05:42.526Z,25.40
2022-07-27T13:08:11.630Z,25.20
2022-07-27T13:10:40.572Z,25.10
2022-07-27T13:13:10.415Z,25.50
2022-07-27T13:15:38.604Z,25.80
2022-07-27T13:18:08.421Z,25.10
2022-07-27T13:20:36.817Z,25.00
2022-07-27T13:23:08.336Z,24.90
2022-07-27T13:25:41.180Z,25.10
2022-07-27T13:28:12.887Z,25.40
2022-07-27T13:30:41.320Z,25.60
2022-07-27T13:33:09.935Z,25.80
2022-07-27T13:35:38.226Z,26.00
2022-07-27T13:38:06.356Z,26.20
2022-07-27T13:40:34.561Z,26.10
2022-07-27T13:43:02.709Z,26.10
2022-07-27T13:45:43.423Z,25.80
2022-07-27T13:48:13.168Z,25.70
2022-07-27T13:50:42.066Z,25.60
2022-07-27T13:53:15.155Z,25.20
2022-07-27T13:55:44.475Z,25.30
2022-07-27T13:58:12.815Z,25.40
2022-07-27T14:00:42.564Z,25.60
2022-07-27T14:03:11.286Z,25.80
2022-07-27T14:05:45.407Z,25.90
2022-07-27T14:08:21.831Z,25.80
2022-07-27T14:10:51.236Z,25.40
2022-07-27T14:13:21.506Z,25.20
2022-07-27T14:15:54.119Z,25.20
2022-07-27T14:18:28.517Z,24.80
2022-07-27T14:20:57.814Z,25.30
2022-07-27T14:23:27.461Z,25.70
2022-07-27T14:25:58.433Z,25.80
2022-07-27T14:28:27.725Z,25.80
2022-07-27T14:30:57.919Z,25.90
2022-07-27T14:33:36.705Z,25.80
2022-07-27T14:36:06.389Z,25.70
2022-07-27T14:38:36.752Z,25.80
2022-07-27T14:41:05.621Z,25.80
2022-07-27T14:43:33.987Z,25.30
2022-07-27T14:46:03.483Z,25.20
2022-07-27T14:49:03.455Z,25.10
2022-07-27T14:51:19.797Z,24.80
2022-07-27T14:53:47.987Z,24.70
2022-07-27T14:56:16.164Z,25.10
2022-07-27T14:58:44.810Z,25.10
2022-07-27T15:01:17.011Z,25.00
2022-07-27T15:03:46.061Z,25.00
2022-07-27T15:06:14.251Z,25.10
2022-07-27T15:08:42.383Z,25.20
2022-07-27T15:11:10.929Z,25.20
2022-07-27T15:13:39.080Z,25.20
2022-07-27T15:16:07.594Z,25.30
2022-07-27T15:18:38.846Z,25.20
2022-07-27T15:21:13.301Z,25.10
2022-07-27T15:23:43.229Z,25.10
2022-07-27T15:26:11.966Z,25.40
2022-07-27T15:28:40.399Z,25.40
2022-07-27T15:31:11.251Z,25.30
2022-07-27T15:33:40.840Z,25.00
2022-07-27T15:36:09.477Z,25.00
2022-07-27T15:38:37.649Z,24.90
2022-07-27T15:41:06.161Z,24.80
2022-07-27T15:43:34.554Z,24.80
2022-07-27T15:46:02.859Z,24.80
2022-07-27T15:48:55.159Z,24.80
2022-07-27T15:51:27.663Z,24.90
2022-07-27T15:53:58.855Z,25.00
2022-07-27T15:56:39.544Z,25.00
2022-07-27T15:59:07.694Z,24.70
2022-07-27T16:01:38.154Z,24.80
2022-07-27T16:04:08.794Z,25.00
2022-07-27T16:06:40.597Z,24.80
2022-07-27T16:09:13.484Z,24.50
2022-07-27T16:11:42.674Z,24.60
2022-07-27T16:14:10.844Z,24.80
2022-07-27T16:16:39.000Z,24.80
2022-07-27T16:19:14.247Z,24.90
2022-07-27T16:21:53.620Z,24.70
2022-07-27T16:24:27.466Z,24.70
2022-07-27T16:27:00.764Z,24.50
2022-07-27T16:29:29.162Z,24.50
2022-07-27T16:32:00.607Z,24.50
2022-07-27T16:34:33.237Z,24.70
2022-07-27T16:37:04.676Z,24.70
2022-07-27T16:39:33.515Z,24.80
2022-07-27T16:42:01.748Z,24.80
2022-07-27T16:44:30.058Z,24.60
2022-07-27T16:46:58.337Z,24.60
2022-07-27T16:49:36.503Z,24.40
2022-07-27T16:52:07.374Z,24.60
2022-07-27T16:54:39.680Z,24.50
2022-07-27T16:57:09.211Z,24.50
2022-07-27T16:59:39.042Z,24.40
2022-07-27T17:02:07.256Z,24.50
2022-07-27T17:04:35.702Z,24.50
2022-07-27T17:07:04.101Z,24.40
2022-07-27T17:09:35.273Z,24.40
2022-07-27T17:12:03.516Z,24.50
2022-07-27T17:14:32.068Z,24.50
2022-07-27T17:17:00.752Z,24.50
2022-07-27T17:19:29.107Z,24.50
2022-07-27T17:21:57.369Z,24.60
2022-07-27T17:24:25.637Z,24.50
2022-07-27T17:26:55.253Z,24.50
2022-07-27T17:29:23.613Z,24.50
2022-07-27T17:31:51.864Z,24.50
2022-07-27T17:34:21.542Z,24.50
2022-07-27T17:36:50.401Z,24.60
2022-07-27T17:39:18.898Z,24.50
2022-07-27T17:41:47.027Z,24.40
2022-07-27T17:44:16.605Z,24.30
2022-07-27T17:46:44.763Z,24.30
2022-07-27T17:49:13.543Z,24.20
2022-07-27T17:51:44.387Z,24.10
2022-07-27T17:54:12.501Z,24.00
2022-07-27T17:56:40.913Z,24.00
2022-07-27T17:59:35.989Z,23.90
2022-07-27T18:02:01.464Z,23.80
2022-07-27T18:04:38.959Z,23.80
2022-07-27T18:07:10.337Z,23.80
2022-07-27T18:09:38.998Z,23.80
2022-07-27T18:12:09.970Z,23.80
2022-07-27T18:15:00.273Z,23.70
2022-07-27T18:17:30.031Z,23.60
2022-07-27T18:19:58.646Z,23.60
2022-07-27T18:22:26.780Z,23.50
2022-07-27T18:24:55.669Z,23.30
2022-07-27T18:27:24.058Z,23.20
2022-07-27T18:29:52.681Z,23.10
2022-07-27T18:32:22.760Z,22.90
2022-07-27T18:34:55.302Z,22.80
2022-07-27T18:37:23.566Z,22.70
2022-07-27T18:39:54.591Z,22.50
2022-07-27T18:42:25.696Z,22.40
2022-07-27T18:44:55.855Z,22.30
2022-07-27T18:47:26.788Z,22.20
2022-07-27T18:49:56.813Z,22.10
2022-07-27T18:52:25.797Z,22.00
2022-07-27T18:54:56.248Z,22.00
2022-07-27T18:57:27.688Z,21.90
2022-07-27T19:00:12.027Z,21.80
2022-07-27T19:02:40.302Z,21.70
2022-07-27T19:05:11.557Z,21.60
2022-07-27T19:07:43.872Z,21.50
2022-07-27T19:10:14.687Z,21.40
2022-07-27T19:12:46.670Z,21.20
2022-07-27T19:15:16.877Z,21.20
2022-07-27T19:17:47.191Z,21.10
2022-07-27T19:20:17.320Z,21.20
2022-07-27T19:22:47.444Z,21.10
2022-07-27T19:25:16.021Z,21.10
2022-07-27T19:27:44.486Z,21.10
2022-07-27T19:30:13.453Z,21.00
2022-07-27T19:32:44.083Z,21.00
2022-07-27T19:35:12.561Z,21.00
2022-07-27T19:37:42.039Z,20.90
2022-07-27T19:40:41.600Z,20.90
2022-07-27T19:42:59.252Z,20.80
2022-07-27T19:45:27.530Z,20.70
2022-07-27T19:47:55.730Z,20.70
2022-07-27T19:50:27.743Z,20.70
2022-07-27T19:52:57.234Z,20.70
2022-07-27T19:55:25.454Z,20.60
2022-07-27T19:57:53.478Z,20.50
2022-07-27T20:00:21.751Z,20.50
2022-07-27T20:02:50.031Z,20.50
2022-07-27T20:05:18.290Z,20.40
2022-07-27T20:07:46.498Z,20.30
2022-07-27T20:10:16.239Z,20.30
2022-07-27T20:12:46.586Z,20.20
2022-07-27T20:15:14.698Z,20.10
2022-07-27T20:17:42.830Z,20.10
2022-07-27T20:20:12.105Z,20.00
2022-07-27T20:22:40.980Z,19.90
2022-07-27T20:25:10.618Z,20.00
2022-07-27T20:27:40.638Z,19.90
2022-07-27T20:30:10.052Z,19.90
2022-07-27T20:32:38.234Z,19.80
2022-07-27T20:35:09.339Z,19.80
2022-07-27T20:37:37.827Z,19.80
2022-07-27T20:40:07.672Z,19.70
2022-07-27T20:42:35.834Z,19.60
2022-07-27T20:45:14.323Z,19.50
2022-07-27T20:47:42.588Z,19.50
2022-07-27T20:50:12.546Z,19.40
2022-07-27T20:52:44.831Z,19.30
2022-07-27T20:55:13.151Z,19.20
2022-07-27T20:57:41.517Z,19.10
2022-07-27T21:00:13.046Z,19.00
2022-07-27T21:02:41.318Z,18.90
2022-07-27T21:05:10.279Z,18.80
2022-07-27T21:07:38.770Z,18.80
2022-07-27T21:10:08.501Z,18.70
2022-07-27T21:12:36.575Z,18.60
2022-07-27T21:15:09.844Z,18.60
2022-07-27T21:17:42.650Z,18.50
2022-07-27T21:20:11.942Z,18.40
2022-07-27T21:22:43.198Z,18.30
2022-07-27T21:25:13.163Z,18.30
2022-07-27T21:27:44.029Z,18.20
2022-07-27T21:30:14.412Z,18.20
2022-07-27T21:32:43.803Z,18.10
2022-07-27T21:35:11.906Z,18.00
2022-07-27T21:37:39.999Z,17.80
2022-07-27T21:40:09.298Z,17.80
2022-07-27T21:42:37.569Z,17.80
2022-07-27T21:45:07.174Z,17.70
2022-07-27T21:47:35.400Z,17.70
2022-07-27T21:50:05.417Z,17.70
2022-07-27T21:52:33.555Z,17.70
2022-07-27T21:55:01.706Z,17.60
2022-07-27T21:57:29.795Z,17.60
2022-07-27T21:59:57.875Z,17.60
2022-07-27T22:02:28.218Z,17.60
2022-07-27T22:04:56.675Z,17.60
2022-07-27T22:07:26.122Z,17.50
2022-07-27T22:09:54.241Z,17.50
2022-07-27T22:12:22.443Z,17.40
2022-07-27T22:14:50.511Z,17.40
2022-07-27T22:17:20.952Z,17.30
2022-07-27T22:19:51.268Z,17.30
2022-07-27T22:22:19.387Z,17.30
2022-07-27T22:24:48.880Z,17.30
2022-07-27T22:27:17.828Z,17.30
2022-07-27T22:29:46.057Z,17.30
2022-07-27T22:32:14.342Z,17.30
2022-07-27T22:34:42.623Z,17.30
2022-07-27T22:37:10.761Z,17.30
2022-07-27T22:39:43.228Z,17.20
2022-07-27T22:42:13.507Z,17.20
2022-07-27T22:44:42.418Z,17.20
2022-07-27T22:47:11.913Z,17.30
2022-07-27T22:49:40.119Z,17.20
2022-07-27T22:52:08.565Z,17.20
2022-07-27T22:54:38.709Z,17.10
2022-07-27T22:57:07.625Z,17.20
2022-07-27T22:59:37.574Z,17.10
2022-07-27T23:02:06.475Z,17.10
2022-07-27T23:04:34.756Z,17.10
2022-07-27T23:07:07.988Z,17.10
2022-07-27T23:09:51.238Z,17.10
2022-07-27T23:12:23.133Z,17.00
2022-07-27T23:15:01.084Z,17.00
2022-07-27T23:17:29.770Z,16.90
2022-07-27T23:19:57.822Z,16.90
2022-07-27T23:22:26.024Z,16.90
2022-07-27T23:24:54.059Z,16.80
2022-07-27T23:27:22.169Z,16.80
2022-07-27T23:29:50.237Z,16.80
2022-07-27T23:32:19.605Z,16.70
2022-07-27T23:34:47.633Z,16.70
2022-07-27T23:37:17.973Z,16.70
2022-07-27T23:39:46.261Z,16.60
2022-07-27T23:42:17.198Z,16.60
2022-07-27T23:44:45.551Z,16.60
2022-07-27T23:47:13.631Z,16.60
2022-07-27T23:49:43.138Z,16.50
2022-07-27T23:52:11.211Z,16.50
2022-07-27T23:54:39.395Z,16.50
2022-07-27T23:57:08.367Z,16.40
2022-07-27T23:59:36.868Z,16.40
